EJU27PJ LFRS-LFRN
Flight info
| Callsign | EJU27PJ |
|---|---|
| Flight time | 0h 19m |
| Altitude | 8000 |
| Route | BALNI |
| Aircraft | A20N/M-SDE2E3FGHIRWXY/LB1 |
Departure
| Time | 2026-04-22 20:33 |
|---|---|
| Airport | Nantes Atlantique Airport (LFRS) |
Arrival
| Time | 2026-04-22 20:53 |
|---|---|
| Airport | Rennes-Saint-Jacques Airport (LFRN) |
| Time | Latitude | Longitude | Altitude | Speed | Heading |
|---|---|---|---|---|---|
| 2026-04-22 20:07 | 47.15713 | -1.60269 | 88 ft | 0 kts | 43° |
| 2026-04-22 20:19 | 47.15713 | -1.60270 | 84 ft | 0 kts | 43° |
| 2026-04-22 20:22 | 47.15712 | -1.60270 | 84 ft | 1 kts | 43° |
| 2026-04-22 20:22 | 47.15701 | -1.60286 | 89 ft | 2 kts | 45° |
| 2026-04-22 20:22 | 47.15689 | -1.60303 | 88 ft | 2 kts | 44° |
| 2026-04-22 20:23 | 47.15677 | -1.60320 | 86 ft | 2 kts | 43° |
| 2026-04-22 20:23 | 47.15665 | -1.60335 | 88 ft | 2 kts | 16° |
| 2026-04-22 20:23 | 47.15649 | -1.60332 | 87 ft | 2 kts | 317° |
| 2026-04-22 20:23 | 47.15641 | -1.60321 | 88 ft | 0 kts | 318° |
| 2026-04-22 20:28 | 47.15643 | -1.60323 | 90 ft | 3 kts | 319° |
| 2026-04-22 20:28 | 47.15686 | -1.60378 | 90 ft | 12 kts | 319° |
| 2026-04-22 20:28 | 47.15716 | -1.60477 | 86 ft | 11 kts | 251° |
| 2026-04-22 20:28 | 47.15656 | -1.60546 | 88 ft | 12 kts | 209° |
| 2026-04-22 20:29 | 47.15574 | -1.60611 | 90 ft | 14 kts | 208° |
| 2026-04-22 20:29 | 47.15477 | -1.60686 | 90 ft | 18 kts | 207° |
| 2026-04-22 20:29 | 47.15358 | -1.60777 | 91 ft | 20 kts | 207° |
| 2026-04-22 20:29 | 47.15221 | -1.60882 | 92 ft | 24 kts | 207° |
| 2026-04-22 20:30 | 47.15064 | -1.60999 | 91 ft | 27 kts | 207° |
| 2026-04-22 20:30 | 47.14891 | -1.61130 | 90 ft | 29 kts | 207° |
| 2026-04-22 20:30 | 47.14725 | -1.61259 | 91 ft | 28 kts | 207° |
| 2026-04-22 20:30 | 47.14558 | -1.61385 | 91 ft | 31 kts | 207° |
| 2026-04-22 20:31 | 47.14379 | -1.61518 | 87 ft | 24 kts | 207° |
| 2026-04-22 20:31 | 47.14252 | -1.61615 | 88 ft | 19 kts | 208° |
| 2026-04-22 20:31 | 47.14161 | -1.61735 | 84 ft | 18 kts | 246° |
| 2026-04-22 20:31 | 47.14155 | -1.61900 | 87 ft | 12 kts | 308° |
| 2026-04-22 20:32 | 47.14205 | -1.61919 | 86 ft | 9 kts | 23° |
| 2026-04-22 20:32 | 47.14221 | -1.61908 | 86 ft | 17 kts | 25° |
| 2026-04-22 20:32 | 47.14548 | -1.61658 | 92 ft | 85 kts | 27° |
| 2026-04-22 20:32 | 47.15241 | -1.61122 | 89 ft | 137 kts | 30° |
| 2026-04-22 20:33 | 47.16150 | -1.60381 | 325 ft | 158 kts | 33° |
| 2026-04-22 20:33 | 47.17170 | -1.59766 | 980 ft | 158 kts | 11° |
| 2026-04-22 20:33 | 47.18241 | -1.60146 | 1750 ft | 163 kts | 343° |
| 2026-04-22 20:33 | 47.19294 | -1.60951 | 2144 ft | 180 kts | 344° |
| 2026-04-22 20:34 | 47.20508 | -1.61657 | 2538 ft | 197 kts | 352° |
| 2026-04-22 20:34 | 47.21912 | -1.62131 | 2962 ft | 216 kts | 359° |
| 2026-04-22 20:34 | 47.23472 | -1.62415 | 3582 ft | 236 kts | 0° |
| 2026-04-22 20:34 | 47.25176 | -1.62630 | 4240 ft | 256 kts | 360° |
| 2026-04-22 20:35 | 47.27006 | -1.62842 | 5045 ft | 268 kts | 358° |
| 2026-04-22 20:35 | 47.28871 | -1.63059 | 6072 ft | 271 kts | 357° |
| 2026-04-22 20:35 | 47.30778 | -1.63287 | 6889 ft | 280 kts | 357° |
| 2026-04-22 20:35 | 47.32715 | -1.63526 | 6987 ft | 277 kts | 357° |
| 2026-04-22 20:36 | 47.34639 | -1.63774 | 7102 ft | 278 kts | 356° |
| 2026-04-22 20:36 | 47.36569 | -1.64024 | 7225 ft | 279 kts | 356° |
| 2026-04-22 20:36 | 47.38501 | -1.64274 | 7327 ft | 277 kts | 356° |
| 2026-04-22 20:36 | 47.40423 | -1.64524 | 7439 ft | 277 kts | 356° |
| 2026-04-22 20:37 | 47.42348 | -1.64774 | 7549 ft | 278 kts | 356° |
| 2026-04-22 20:37 | 47.44278 | -1.65025 | 7657 ft | 279 kts | 356° |
| 2026-04-22 20:37 | 47.46209 | -1.65301 | 7765 ft | 278 kts | 351° |
| 2026-04-22 20:37 | 47.48032 | -1.66233 | 7882 ft | 278 kts | 337° |
| 2026-04-22 20:38 | 47.49804 | -1.67439 | 7986 ft | 282 kts | 336° |
| 2026-04-22 20:38 | 47.51577 | -1.68688 | 8093 ft | 282 kts | 336° |
| 2026-04-22 20:38 | 47.53354 | -1.69929 | 8120 ft | 282 kts | 336° |
| 2026-04-22 20:38 | 47.55134 | -1.71153 | 8130 ft | 281 kts | 336° |
| 2026-04-22 20:39 | 47.56892 | -1.72344 | 8126 ft | 282 kts | 337° |
| 2026-04-22 20:39 | 47.58679 | -1.73547 | 8114 ft | 280 kts | 337° |
| 2026-04-22 20:39 | 47.60449 | -1.74733 | 7945 ft | 278 kts | 337° |
| 2026-04-22 20:39 | 47.62219 | -1.75918 | 7827 ft | 280 kts | 337° |
| 2026-04-22 20:40 | 47.63995 | -1.77109 | 7710 ft | 280 kts | 337° |
| 2026-04-22 20:40 | 47.65765 | -1.78300 | 7582 ft | 279 kts | 337° |
| 2026-04-22 20:40 | 47.67535 | -1.79492 | 7461 ft | 279 kts | 337° |
| 2026-04-22 20:40 | 47.69305 | -1.80686 | 7336 ft | 279 kts | 338° |
| 2026-04-22 20:41 | 47.71073 | -1.81878 | 7223 ft | 279 kts | 337° |
| 2026-04-22 20:41 | 47.72838 | -1.83069 | 7104 ft | 279 kts | 338° |
| 2026-04-22 20:41 | 47.74599 | -1.84259 | 6984 ft | 278 kts | 337° |
| 2026-04-22 20:41 | 47.76362 | -1.85454 | 6863 ft | 278 kts | 338° |
| 2026-04-22 20:42 | 47.78121 | -1.86645 | 6747 ft | 278 kts | 338° |
| 2026-04-22 20:42 | 47.79880 | -1.87838 | 6623 ft | 276 kts | 338° |
| 2026-04-22 20:42 | 47.81627 | -1.89022 | 6498 ft | 276 kts | 338° |
| 2026-04-22 20:42 | 47.83373 | -1.90208 | 6375 ft | 276 kts | 338° |
| 2026-04-22 20:43 | 47.85122 | -1.91397 | 6248 ft | 276 kts | 338° |
| 2026-04-22 20:43 | 47.86869 | -1.92588 | 6116 ft | 276 kts | 338° |
| 2026-04-22 20:43 | 47.88625 | -1.93781 | 5832 ft | 278 kts | 338° |
| 2026-04-22 20:43 | 47.90360 | -1.94960 | 5464 ft | 278 kts | 338° |
| 2026-04-22 20:44 | 47.92112 | -1.96155 | 5084 ft | 276 kts | 339° |
| 2026-04-22 20:44 | 47.93852 | -1.97345 | 4709 ft | 274 kts | 339° |
| 2026-04-22 20:44 | 47.95579 | -1.98530 | 4351 ft | 272 kts | 339° |
| 2026-04-22 20:44 | 47.97285 | -1.99703 | 4147 ft | 269 kts | 339° |
| 2026-04-22 20:45 | 47.99012 | -2.00886 | 4046 ft | 270 kts | 340° |
| 2026-04-22 20:45 | 48.00682 | -2.02012 | 3999 ft | 255 kts | 345° |
| 2026-04-22 20:45 | 48.02343 | -2.02342 | 3995 ft | 230 kts | 13° |
| 2026-04-22 20:45 | 48.03880 | -2.01902 | 3818 ft | 223 kts | 19° |
| 2026-04-22 20:46 | 48.06901 | -2.00978 | 3307 ft | 210 kts | 19° |
| 2026-04-22 20:46 | 48.08241 | -2.00627 | 3196 ft | 184 kts | 19° |
| 2026-04-22 20:46 | 48.09400 | -2.00224 | 3039 ft | 155 kts | 38° |
| 2026-04-22 20:47 | 48.10101 | -1.99261 | 2799 ft | 127 kts | 72° |
| 2026-04-22 20:47 | 48.10279 | -1.98110 | 2605 ft | 103 kts | 97° |
| 2026-04-22 20:47 | 48.10166 | -1.97077 | 2271 ft | 100 kts | 102° |
| 2026-04-22 20:47 | 48.10042 | -1.96073 | 2145 ft | 102 kts | 102° |
| 2026-04-22 20:48 | 48.09909 | -1.94996 | 2013 ft | 104 kts | 102° |
| 2026-04-22 20:48 | 48.09780 | -1.93946 | 2004 ft | 103 kts | 102° |
| 2026-04-22 20:48 | 48.09650 | -1.92881 | 2002 ft | 104 kts | 102° |
| 2026-04-22 20:48 | 48.09517 | -1.91818 | 2003 ft | 103 kts | 102° |
| 2026-04-22 20:49 | 48.09385 | -1.90755 | 2005 ft | 103 kts | 102° |
| 2026-04-22 20:49 | 48.09255 | -1.89708 | 2008 ft | 104 kts | 102° |
| 2026-04-22 20:49 | 48.09120 | -1.88641 | 1930 ft | 106 kts | 102° |
| 2026-04-22 20:49 | 48.08972 | -1.87576 | 1770 ft | 104 kts | 101° |
| 2026-04-22 20:50 | 48.08823 | -1.86516 | 1662 ft | 105 kts | 100° |
| 2026-04-22 20:50 | 48.08691 | -1.85438 | 1541 ft | 106 kts | 98° |
| 2026-04-22 20:50 | 48.08557 | -1.84345 | 1371 ft | 108 kts | 101° |
| 2026-04-22 20:50 | 48.08408 | -1.83232 | 1188 ft | 111 kts | 99° |
| 2026-04-22 20:51 | 48.08265 | -1.82073 | 1027 ft | 114 kts | 98° |
| 2026-04-22 20:51 | 48.08127 | -1.80881 | 917 ft | 121 kts | 98° |
| 2026-04-22 20:51 | 48.07977 | -1.79648 | 816 ft | 121 kts | 98° |
| 2026-04-22 20:51 | 48.07825 | -1.78391 | 635 ft | 125 kts | 97° |
| 2026-04-22 20:52 | 48.07670 | -1.77118 | 473 ft | 122 kts | 98° |
| 2026-04-22 20:52 | 48.07517 | -1.75869 | 313 ft | 124 kts | 98° |
| 2026-04-22 20:52 | 48.07361 | -1.74595 | 164 ft | 123 kts | 98° |
| 2026-04-22 20:52 | 48.07224 | -1.73470 | 123 ft | 79 kts | 99° |
| 2026-04-22 20:53 | 48.07170 | -1.72979 | 137 ft | 40 kts | 98° |
| 2026-04-22 20:53 | 48.07130 | -1.72663 | 143 ft | 23 kts | 104° |
| 2026-04-22 20:53 | 48.07100 | -1.72470 | 145 ft | 14 kts | 102° |
| 2026-04-22 20:53 | 48.07086 | -1.72398 | 146 ft | 6 kts | 119° |
| 2026-04-22 20:54 | 48.07046 | -1.72393 | 146 ft | 9 kts | 202° |
| 2026-04-22 20:54 | 48.06970 | -1.72451 | 141 ft | 12 kts | 212° |
| 2026-04-22 20:54 | 48.06955 | -1.72552 | 139 ft | 10 kts | 280° |
| 2026-04-22 20:54 | 48.06963 | -1.72596 | 138 ft | 0 kts | 285° |
| 2026-04-22 20:55 | 48.06962 | -1.72597 | 138 ft | 1 kts | 281° |
| 2026-04-22 20:55 | 48.06962 | -1.72607 | 138 ft | 0 kts | 271° |
| 2026-04-22 20:55 | 48.06951 | -1.72613 | 138 ft | 2 kts | 184° |
| 2026-04-22 20:55 | 48.06928 | -1.72617 | 137 ft | 5 kts | 193° |
| 2026-04-22 20:56 | 48.06901 | -1.72650 | 135 ft | 6 kts | 224° |
| 2026-04-22 20:56 | 48.06899 | -1.72653 | 135 ft | 0 kts | 224° |